Time;durP1;ratioP1;P1;durP2;ratioP2;P2;SDS_P1;SDS_P2;PMS_P1;PMS_P2;Temp;Humidity;BMP_temperature;BMP_pressure;BME280_temperature;BME280_humidity;BME280_pressure;Samples;Min_cycle;Max_cycle;Signal;HPM_P1;HPM_P2
2022/08/02 00:00:18;;;;;;;;;;;;;;;;;;6179894;23;19918;-87
2022/08/02 00:02:48;;;;;;;;;;;;;;;;;;6218060;23;19923;-86
2022/08/02 00:05:13;;;;;;;;;;;;;;;;;;6192921;23;19943;-87
2022/08/02 00:07:42;;;;;;;;;;;;;;;;;;6216455;23;19915;-87
2022/08/02 00:10:08;;;;;;;;;;;;;;;;;;6189633;23;20354;-87
2022/08/02 00:12:34;;;;;;;;;;;;;;;;;;6190480;23;19979;-86
2022/08/02 00:15:00;;;;;;;;;;;;;;;;;;6193187;23;19934;-87
2022/08/02 00:17:26;;;;;;;;;;;;;;;;;;6167428;23;20287;-87
2022/08/02 00:19:53;;;;;;;;;;;;;;;;;;6182559;23;19993;-87
2022/08/02 00:22:18;;;;;;;;;;;;;;;;;;6191180;23;20424;-87
2022/08/02 00:24:46;;;;;;;;;;;;;;;;;;6190153;23;19912;-87
2022/08/02 00:27:13;;;;;;;;;;;;;;;;;;6178047;23;20342;-87
2022/08/02 00:29:38;;;;;;;;;;;;;;;;;;6193035;23;20391;-87
2022/08/02 00:32:06;;;;;;;;;;;;;;;;;;6191700;23;19952;-86
2022/08/02 00:34:31;;;;;;;;;;;;;;;;;;6191618;23;19915;-87
2022/08/02 00:36:57;;;;;;;;;;;;;;;;;;6217242;22;19942;-87
2022/08/02 00:39:24;;;;;;;;;;;;;;;;;;6192673;23;19987;-87
2022/08/02 00:41:51;;;;;;;;;;;;;;;;;;6171455;23;19983;-87
2022/08/02 00:44:18;;;;;;;;;;;;;;;;;;6191265;23;19917;-87
2022/08/02 00:46:44;;;;;;;;;;;;;;;;;;6185565;23;19986;-87
2022/08/02 00:49:10;;;;;;;;;;;;;;;;;;6189689;23;19922;-86
2022/08/02 00:51:37;;;;;;;;;;;;;;;;;;6174790;23;19912;-87
2022/08/02 00:54:03;;;;;;;;;;;;;;;;;;6190855;23;20350;-86
2022/08/02 00:56:30;;;;;;;;;;;;;;;;;;6181913;23;19911;-87
2022/08/02 00:58:57;;;;;;;;;;;;;;;;;;6190831;23;19922;-87
2022/08/02 01:01:38;;;;;;;;;;;;;;;;;;6192232;23;19994;-87
2022/08/02 01:04:05;;;;;;;;;;;;;;;;;;6194367;23;19913;-87
2022/08/02 01:06:32;;;;;;;;;;;;;;;;;;6189130;23;19943;-87
2022/08/02 01:08:58;;;;;;;;;;;;;;;;;;6165788;23;19919;-87
2022/08/02 01:11:23;;;;;;;;;;;;;;;;;;6163697;23;19916;-87
2022/08/02 01:13:49;;;;;;;;;;;;;;;;;;6191355;23;20407;-87
2022/08/02 01:16:15;;;;;;;;;;;;;;;;;;6200361;23;19990;-87
2022/08/02 01:18:44;;;;;;;;;;;;;;;;;;6192356;23;19916;-86
2022/08/02 01:21:13;;;;;;;;;;;;;;;;;;6176000;23;19927;-87
2022/08/02 01:23:47;;;;;;;;;;;;;;;;;;6218278;23;19926;-87
2022/08/02 01:26:31;;;;;;;;;;;;;;;;;;6176185;23;19952;-86
2022/08/02 01:29:08;;;;;;;;;;;;;;;;;;6212933;23;19939;-87
2022/08/02 01:32:00;;;;;;;;;;;;;;;;;;6210384;23;19911;-87
2022/08/02 01:34:33;;;;;;;;;;;;;;;;;;6211275;23;19912;-87
2022/08/02 01:37:10;;;;;;;;;;;;;;;;;;6219192;23;19912;-86
2022/08/02 01:39:36;;;;;;;;;;;;;;;;;;6216717;23;19955;-86
2022/08/02 01:42:02;;;;;;;;;;;;;;;;;;6192493;23;19911;-87
2022/08/02 01:44:28;;;;;;;;;;;;;;;;;;6190108;23;19919;-87
2022/08/02 01:46:55;;;;;;;;;;;;;;;;;;6215577;22;19970;-87
2022/08/02 01:49:21;;;;;;;;;;;;;;;;;;6191281;23;19943;-87
2022/08/02 01:54:32;;;;;;;;;;;;;;;;;;6178424;23;19918;-87
2022/08/02 01:56:58;;;;;;;;;;;;;;;;;;6161080;23;19915;-87
2022/08/02 01:59:25;;;;;;;;;;;;;;;;;;6163836;23;19931;-87
2022/08/02 02:01:51;;;;;;;;;;;;;;;;;;6166934;23;20323;-87
2022/08/02 02:04:17;;;;;;;;;;;;;;;;;;6192970;23;20313;-87
2022/08/02 02:06:43;;;;;;;;;;;;;;;;;;6191190;23;19931;-87
2022/08/02 02:09:09;;;;;;;;;;;;;;;;;;6192224;23;19911;-87
2022/08/02 02:11:36;;;;;;;;;;;;;;;;;;6193014;23;20134;-86
2022/08/02 02:14:03;;;;;;;;;;;;;;;;;;6193509;23;20132;-87
2022/08/02 02:16:30;;;;;;;;;;;;;;;;;;6194316;23;20215;-87
2022/08/02 02:18:56;;;;;;;;;;;;;;;;;;6190058;23;19915;-87
2022/08/02 02:21:22;;;;;;;;;;;;;;;;;;6191367;23;19942;-87
2022/08/02 02:23:52;;;;;;;;;;;;;;;;;;6218785;23;19912;-86
2022/08/02 02:26:20;;;;;;;;;;;;;;;;;;6195394;23;19912;-87
2022/08/02 02:28:48;;;;;;;;;;;;;;;;;;6192137;23;19986;-87
2022/08/02 02:31:18;;;;;;;;;;;;;;;;;;6179008;23;20312;-86
2022/08/02 02:33:46;;;;;;;;;;;;;;;;;;6190664;23;19915;-86
2022/08/02 02:36:12;;;;;;;;;;;;;;;;;;6216223;23;19957;-87
2022/08/02 02:38:37;;;;;;;;;;;;;;;;;;6188415;23;19912;-86
2022/08/02 02:41:03;;;;;;;;;;;;;;;;;;6216031;23;19942;-87
2022/08/02 02:43:32;;;;;;;;;;;;;;;;;;6203285;23;19946;-87
2022/08/02 02:45:58;;;;;;;;;;;;;;;;;;6191816;23;19910;-87
2022/08/02 02:48:25;;;;;;;;;;;;;;;;;;6189869;23;19919;-87
2022/08/02 02:50:51;;;;;;;;;;;;;;;;;;6191847;23;19912;-87
2022/08/02 02:53:17;;;;;;;;;;;;;;;;;;6192387;23;19995;-87
2022/08/02 02:55:43;;;;;;;;;;;;;;;;;;6191178;23;19942;-87
2022/08/02 02:58:08;;;;;;;;;;;;;;;;;;6191851;23;19939;-86
2022/08/02 03:03:19;;;;;;;;;;;;;;;;;;6219385;23;19934;-87
2022/08/02 03:05:44;;;;;;;;;;;;;;;;;;6190067;23;19982;-87
2022/08/02 03:08:10;;;;;;;;;;;;;;;;;;6191689;23;19943;-86
2022/08/02 03:10:36;;;;;;;;;;;;;;;;;;6191290;22;19943;-86
2022/08/02 03:13:01;;;;;;;;;;;;;;;;;;6191217;23;19950;-87
2022/08/02 03:15:27;;;;;;;;;;;;;;;;;;6213916;23;19935;-86
2022/08/02 03:17:52;;;;;;;;;;;;;;;;;;6189049;23;19918;-86
2022/08/02 03:20:19;;;;;;;;;;;;;;;;;;6190216;23;19946;-86
2022/08/02 03:22:45;;;;;;;;;;;;;;;;;;6189877;23;19911;-87
2022/08/02 03:25:11;;;;;;;;;;;;;;;;;;6190313;23;19919;-87
2022/08/02 03:27:37;;;;;;;;;;;;;;;;;;6188758;23;19986;-86
2022/08/02 03:30:04;;;;;;;;;;;;;;;;;;6182377;23;19986;-87
2022/08/02 03:32:29;;;;;;;;;;;;;;;;;;6215821;22;19967;-87
2022/08/02 03:34:55;;;;;;;;;;;;;;;;;;6191731;23;19965;-86
2022/08/02 03:37:21;;;;;;;;;;;;;;;;;;6190433;23;19986;-87
2022/08/02 03:39:48;;;;;;;;;;;;;;;;;;6191050;22;19915;-86
2022/08/02 03:42:14;;;;;;;;;;;;;;;;;;6190257;23;19938;-86
2022/08/02 03:44:39;;;;;;;;;;;;;;;;;;6188243;23;19943;-86
2022/08/02 03:47:06;;;;;;;;;;;;;;;;;;6182657;23;19945;-86
2022/08/02 03:49:32;;;;;;;;;;;;;;;;;;6212889;23;19920;-87
2022/08/02 03:51:58;;;;;;;;;;;;;;;;;;6187268;23;20387;-87
2022/08/02 03:54:24;;;;;;;;;;;;;;;;;;6213247;23;19934;-86
2022/08/02 03:56:50;;;;;;;;;;;;;;;;;;6187965;23;19912;-86
2022/08/02 03:59:15;;;;;;;;;;;;;;;;;;6188254;23;20070;-87
2022/08/02 04:01:42;;;;;;;;;;;;;;;;;;6189717;23;20012;-88
2022/08/02 04:04:08;;;;;;;;;;;;;;;;;;6182369;23;20326;-86
2022/08/02 04:06:33;;;;;;;;;;;;;;;;;;6178637;23;19965;-87
2022/08/02 04:08:59;;;;;;;;;;;;;;;;;;6213809;23;19947;-87
2022/08/02 04:11:31;;;;;;;;;;;;;;;;;;6187685;23;19930;-87
2022/08/02 04:14:06;;;;;;;;;;;;;;;;;;6212931;23;20334;-86
2022/08/02 04:16:41;;;;;;;;;;;;;;;;;;6187389;23;19983;-87
2022/08/02 04:19:07;;;;;;;;;;;;;;;;;;6164349;23;20124;-86
2022/08/02 04:21:34;;;;;;;;;;;;;;;;;;6155852;23;19912;-87
2022/08/02 04:24:00;;;;;;;;;;;;;;;;;;6154295;23;19918;-87
2022/08/02 04:26:25;;;;;;;;;;;;;;;;;;6157683;23;19916;-87
2022/08/02 04:28:51;;;;;;;;;;;;;;;;;;6154078;23;20006;-87
2022/08/02 04:31:17;;;;;;;;;;;;;;;;;;6205427;23;20175;-87
2022/08/02 04:33:42;;;;;;;;;;;;;;;;;;6188682;23;19935;-86
2022/08/02 04:36:09;;;;;;;;;;;;;;;;;;6189558;23;19942;-86
2022/08/02 04:38:35;;;;;;;;;;;;;;;;;;6209163;23;19969;-87
2022/08/02 04:41:00;;;;;;;;;;;;;;;;;;6188846;23;19915;-86
2022/08/02 04:43:26;;;;;;;;;;;;;;;;;;6183312;22;19916;-87
2022/08/02 04:45:52;;;;;;;;;;;;;;;;;;6120119;23;20003;-90
2022/08/02 04:48:23;;;;;;;;;;;;;;;;;;6101106;23;19912;-90
2022/08/02 04:50:49;;;;;;;;;;;;;;;;;;6159247;23;19958;-91
2022/08/02 04:53:15;;;;;;;;;;;;;;;;;;6160275;23;19958;-91
2022/08/02 04:55:41;;;;;;;;;;;;;;;;;;6157618;23;19920;-91
2022/08/02 04:58:08;;;;;;;;;;;;;;;;;;6133377;23;19911;-91
2022/08/02 05:00:33;;;;;;;;;;;;;;;;;;6165171;23;19916;-91
2022/08/02 05:03:05;;;;;;;;;;;;;;;;;;6150310;23;19937;-90
2022/08/02 05:05:30;;;;;;;;;;;;;;;;;;6190991;23;19911;-91
2022/08/02 05:07:56;;;;;;;;;;;;;;;;;;6173194;23;19999;-91
2022/08/02 05:10:26;;;;;;;;;;;;;;;;;;6174742;23;19995;-90
2022/08/02 05:12:52;;;;;;;;;;;;;;;;;;6188516;23;19973;-90
2022/08/02 05:15:18;;;;;;;;;;;;;;;;;;6188156;23;19915;-87
2022/08/02 05:17:44;;;;;;;;;;;;;;;;;;6181136;23;20261;-90
2022/08/02 05:20:12;;;;;;;;;;;;;;;;;;6158459;23;20349;-90
2022/08/02 05:22:40;;;;;;;;;;;;;;;;;;6165248;23;20257;-90
2022/08/02 05:25:06;;;;;;;;;;;;;;;;;;6189261;23;20322;-88
2022/08/02 05:27:32;;;;;;;;;;;;;;;;;;6187937;23;19966;-91
2022/08/02 05:30:00;;;;;;;;;;;;;;;;;;6188671;23;19911;-86
2022/08/02 05:32:26;;;;;;;;;;;;;;;;;;6180664;23;19963;-86
2022/08/02 05:34:51;;;;;;;;;;;;;;;;;;6216827;23;19915;-86
2022/08/02 05:37:17;;;;;;;;;;;;;;;;;;6188562;23;20321;-86
2022/08/02 05:39:43;;;;;;;;;;;;;;;;;;6189218;23;19919;-86
2022/08/02 05:42:11;;;;;;;;;;;;;;;;;;6191778;23;19911;-86
2022/08/02 05:44:36;;;;;;;;;;;;;;;;;;6214757;23;19992;-86
2022/08/02 05:47:02;;;;;;;;;;;;;;;;;;6216918;23;19915;-86
2022/08/02 05:49:28;;;;;;;;;;;;;;;;;;6215042;23;19916;-86
2022/08/02 05:52:04;;;;;;;;;;;;;;;;;;6186738;23;19930;-86
2022/08/02 05:54:33;;;;;;;;;;;;;;;;;;6189148;23;19919;-89
2022/08/02 05:57:05;;;;;;;;;;;;;;;;;;6213783;23;19912;-86
2022/08/02 05:59:31;;;;;;;;;;;;;;;;;;6213176;23;20184;-86
2022/08/02 06:01:57;;;;;;;;;;;;;;;;;;6229897;23;19962;-88
2022/08/02 06:04:25;;;;;;;;;;;;;;;;;;6186504;23;19961;-89
2022/08/02 06:06:51;;;;;;;;;;;;;;;;;;6180754;23;19994;-89
2022/08/02 06:09:20;;;;;;;;;;;;;;;;;;6188257;23;19986;-90
2022/08/02 06:11:46;;;;;;;;;;;;;;;;;;6188541;23;20333;-85
2022/08/02 06:14:13;;;;;;;;;;;;;;;;;;6212019;23;19947;-90
2022/08/02 06:16:39;;;;;;;;;;;;;;;;;;6189287;23;19982;-90
2022/08/02 06:19:06;;;;;;;;;;;;;;;;;;6188391;23;19915;-90
2022/08/02 06:21:32;;;;;;;;;;;;;;;;;;6166066;23;20313;-90
2022/08/02 06:23:58;;;;;;;;;;;;;;;;;;6185945;23;19912;-91
2022/08/02 06:26:27;;;;;;;;;;;;;;;;;;6240817;23;19912;-90
2022/08/02 06:28:53;;;;;;;;;;;;;;;;;;6182741;23;20352;-91
2022/08/02 06:31:19;;;;;;;;;;;;;;;;;;6190221;23;19935;-89
2022/08/02 06:33:44;;;;;;;;;;;;;;;;;;6190219;23;19987;-90
2022/08/02 06:36:19;;;;;;;;;;;;;;;;;;6190624;23;19918;-90
2022/08/02 06:38:55;;;;;;;;;;;;;;;;;;6189893;23;20325;-85
2022/08/02 06:41:21;;;;;;;;;;;;;;;;;;6190987;23;19911;-86
2022/08/02 06:43:50;;;;;;;;;;;;;;;;;;6194040;23;20333;-86
2022/08/02 06:46:16;;;;;;;;;;;;;;;;;;6193593;23;19918;-90
2022/08/02 06:48:42;;;;;;;;;;;;;;;;;;6216226;23;19911;-90
2022/08/02 06:51:11;;;;;;;;;;;;;;;;;;6190588;23;19926;-91
2022/08/02 06:53:37;;;;;;;;;;;;;;;;;;6188582;23;19987;-90
2022/08/02 06:56:06;;;;;;;;;;;;;;;;;;6172580;23;20303;-91
2022/08/02 06:58:34;;;;;;;;;;;;;;;;;;6182331;23;20019;-89
2022/08/02 07:01:00;;;;;;;;;;;;;;;;;;6166107;23;20284;-91
2022/08/02 07:03:26;;;;;;;;;;;;;;;;;;6159599;23;20904;-91
2022/08/02 07:05:53;;;;;;;;;;;;;;;;;;6186502;23;19912;-90
2022/08/02 07:08:19;;;;;;;;;;;;;;;;;;6149692;23;19916;-89
2022/08/02 07:10:45;;;;;;;;;;;;;;;;;;6129274;23;19912;-88
2022/08/02 07:13:10;;;;;;;;;;;;;;;;;;6148312;23;20452;-89
2022/08/02 07:15:37;;;;;;;;;;;;;;;;;;6186131;23;19927;-89
2022/08/02 07:18:04;;;;;;;;;;;;;;;;;;6203265;23;19911;-88
2022/08/02 07:20:29;;;;;;;;;;;;;;;;;;6184382;23;19987;-88
2022/08/02 07:23:01;;;;;;;;;;;;;;;;;;6217902;23;19919;-89
2022/08/02 07:25:27;;;;;;;;;;;;;;;;;;6176124;23;19915;-89
2022/08/02 07:27:53;;;;;;;;;;;;;;;;;;6187642;23;19990;-89
2022/08/02 07:30:19;;;;;;;;;;;;;;;;;;6122168;23;19986;-89
2022/08/02 07:32:48;;;;;;;;;;;;;;;;;;6145062;23;19911;-88
2022/08/02 07:35:14;;;;;;;;;;;;;;;;;;6106267;23;19916;-84
2022/08/02 07:37:41;;;;;;;;;;;;;;;;;;6176007;23;19911;-84
2022/08/02 07:40:07;;;;;;;;;;;;;;;;;;6190567;23;20244;-87
2022/08/02 07:42:34;;;;;;;;;;;;;;;;;;6190454;23;19911;-88
2022/08/02 07:45:00;;;;;;;;;;;;;;;;;;6213113;23;19916;-88
2022/08/02 07:47:25;;;;;;;;;;;;;;;;;;6185156;23;19939;-87
2022/08/02 07:49:53;;;;;;;;;;;;;;;;;;6214359;23;19934;-88
2022/08/02 07:52:19;;;;;;;;;;;;;;;;;;6206731;23;19987;-87
2022/08/02 07:54:45;;;;;;;;;;;;;;;;;;6160490;23;20452;-87
2022/08/02 07:57:11;;;;;;;;;;;;;;;;;;6176148;23;19911;-86
2022/08/02 07:59:37;;;;;;;;;;;;;;;;;;6188410;23;20377;-86
2022/08/02 08:02:03;;;;;;;;;;;;;;;;;;6214773;23;19946;-85
2022/08/02 08:04:29;;;;;;;;;;;;;;;;;;6214177;23;19918;-84
2022/08/02 08:06:54;;;;;;;;;;;;;;;;;;6192142;23;19912;-85
2022/08/02 08:09:24;;;;;;;;;;;;;;;;;;6141617;23;20305;-88
2022/08/02 08:11:50;;;;;;;;;;;;;;;;;;6137388;23;19956;-85
2022/08/02 08:14:17;;;;;;;;;;;;;;;;;;6169587;23;19998;-86
2022/08/02 08:16:46;;;;;;;;;;;;;;;;;;6130848;23;19920;-86
2022/08/02 08:19:11;;;;;;;;;;;;;;;;;;6171571;23;20337;-86
2022/08/02 08:21:37;;;;;;;;;;;;;;;;;;6189593;23;19915;-86
2022/08/02 08:24:03;;;;;;;;;;;;;;;;;;6206550;23;19915;-86
2022/08/02 08:26:29;;;;;;;;;;;;;;;;;;6165751;23;20187;-87
2022/08/02 08:28:55;;;;;;;;;;;;;;;;;;6185641;23;19911;-86
2022/08/02 08:31:21;;;;;;;;;;;;;;;;;;6160491;23;19935;-85
2022/08/02 08:33:46;;;;;;;;;;;;;;;;;;6191869;23;19977;-85
2022/08/02 08:36:12;;;;;;;;;;;;;;;;;;6190753;23;20229;-85
2022/08/02 08:38:41;;;;;;;;;;;;;;;;;;6191091;23;20294;-85
2022/08/02 08:41:09;;;;;;;;;;;;;;;;;;6196673;23;19911;-85
2022/08/02 08:43:36;;;;;;;;;;;;;;;;;;6194522;23;19912;-85
2022/08/02 08:46:02;;;;;;;;;;;;;;;;;;6211922;23;19958;-85
2022/08/02 08:48:28;;;;;;;;;;;;;;;;;;6217905;23;19915;-85
2022/08/02 08:50:56;;;;;;;;;;;;;;;;;;6215641;23;20248;-85
2022/08/02 08:53:23;;;;;;;;;;;;;;;;;;6184911;23;19950;-85
2022/08/02 08:55:49;;;;;;;;;;;;;;;;;;6193472;23;19918;-85
2022/08/02 08:58:15;;;;;;;;;;;;;;;;;;6192679;23;19915;-85
2022/08/02 09:00:43;;;;;;;;;;;;;;;;;;6186344;23;20233;-85
2022/08/02 09:03:09;;;;;;;;;;;;;;;;;;6193885;23;20333;-85
2022/08/02 09:05:36;;;;;;;;;;;;;;;;;;6194685;23;19983;-85
2022/08/02 09:08:02;;;;;;;;;;;;;;;;;;6195277;23;19911;-85
2022/08/02 09:10:33;;;;;;;;;;;;;;;;;;6194537;23;19927;-85
2022/08/02 09:13:07;;;;;;;;;;;;;;;;;;6219324;23;19961;-85
2022/08/02 09:15:36;;;;;;;;;;;;;;;;;;6171197;23;19916;-85
2022/08/02 09:18:04;;;;;;;;;;;;;;;;;;6189565;23;20352;-85
2022/08/02 09:20:29;;;;;;;;;;;;;;;;;;6176228;23;19912;-85
2022/08/02 09:23:08;;;;;;;;;;;;;;;;;;6183790;23;19950;-85
2022/08/02 09:25:35;;;;;;;;;;;;;;;;;;6209800;23;19911;-85
2022/08/02 09:28:02;;;;;;;;;;;;;;;;;;6191742;23;20336;-85
2022/08/02 09:30:30;;;;;;;;;;;;;;;;;;6192963;23;19956;-85
2022/08/02 09:32:56;;;;;;;;;;;;;;;;;;6194422;23;20431;-85
2022/08/02 09:35:35;;;;;;;;;;;;;;;;;;6191831;23;19912;-85
2022/08/02 09:38:13;;;;;;;;;;;;;;;;;;6215287;23;20395;-85
2022/08/02 09:40:41;;;;;;;;;;;;;;;;;;6192201;23;19900;-85
2022/08/02 09:43:07;;;;;;;;;;;;;;;;;;6193702;23;19986;-85
2022/08/02 09:45:34;;;;;;;;;;;;;;;;;;6163879;23;20281;-85
2022/08/02 09:48:07;;;;;;;;;;;;;;;;;;6162416;23;19982;-85
2022/08/02 09:50:33;;;;;;;;;;;;;;;;;;6162710;23;19911;-85
2022/08/02 09:52:59;;;;;;;;;;;;;;;;;;6163041;23;20011;-86
2022/08/02 09:55:28;;;;;;;;;;;;;;;;;;6210434;23;19911;-85
2022/08/02 09:57:54;;;;;;;;;;;;;;;;;;6194265;23;20329;-85
2022/08/02 10:00:20;;;;;;;;;;;;;;;;;;6197667;23;19962;-85
2022/08/02 10:03:05;;;;;;;;;;;;;;;;;;6197953;23;19919;-85
2022/08/02 10:05:31;;;;;;;;;;;;;;;;;;6196774;23;19983;-85
2022/08/02 10:07:56;;;;;;;;;;;;;;;;;;6197387;23;19912;-85
2022/08/02 10:10:22;;;;;;;;;;;;;;;;;;6196797;23;19900;-85
2022/08/02 10:12:48;;;;;;;;;;;;;;;;;;6194621;23;20235;-85
2022/08/02 10:15:16;;;;;;;;;;;;;;;;;;6196286;23;19942;-85
2022/08/02 10:17:42;;;;;;;;;;;;;;;;;;6196470;23;19915;-85
2022/08/02 10:20:08;;;;;;;;;;;;;;;;;;6196828;23;19981;-85
2022/08/02 10:22:33;;;;;;;;;;;;;;;;;;6221040;23;19922;-85
2022/08/02 10:24:59;;;;;;;;;;;;;;;;;;6197904;23;19911;-85
2022/08/02 10:27:25;;;;;;;;;;;;;;;;;;6194316;23;19911;-85
2022/08/02 10:29:53;;;;;;;;;;;;;;;;;;6192847;23;19942;-85
2022/08/02 10:32:23;;;;;;;;;;;;;;;;;;6185768;23;20259;-85
2022/08/02 10:34:51;;;;;;;;;;;;;;;;;;6191912;23;19946;-85
2022/08/02 10:37:20;;;;;;;;;;;;;;;;;;6192557;23;19979;-85
2022/08/02 10:39:46;;;;;;;;;;;;;;;;;;6193133;23;19919;-85
2022/08/02 10:42:35;;;;;;;;;;;;;;;;;;6218981;23;19927;-85
2022/08/02 10:45:10;;;;;;;;;;;;;;;;;;6244937;23;19911;-84
2022/08/02 10:47:37;;;;;;;;;;;;;;;;;;6217913;23;19923;-85
2022/08/02 10:50:07;;;;;;;;;;;;;;;;;;6194063;23;19919;-84
2022/08/02 10:52:33;;;;;;;;;;;;;;;;;;6191424;23;19915;-86
2022/08/02 10:55:13;;;;;;;;;;;;;;;;;;6188652;23;20360;-85
2022/08/02 10:57:38;;;;;;;;;;;;;;;;;;6219560;23;19935;-84
2022/08/02 11:00:11;;;;;;;;;;;;;;;;;;6211369;23;19911;-84
2022/08/02 11:02:39;;;;;;;;;;;;;;;;;;6185880;23;20359;-84
2022/08/02 11:05:09;;;;;;;;;;;;;;;;;;6219549;23;19923;-84
2022/08/02 11:07:36;;;;;;;;;;;;;;;;;;6210505;23;20248;-84
2022/08/02 11:10:21;;;;;;;;;;;;;;;;;;6215767;23;19965;-84
2022/08/02 11:13:02;;;;;;;;;;;;;;;;;;6234656;23;19918;-85
2022/08/02 11:15:27;;;;;;;;;;;;;;;;;;6215653;23;19966;-86
2022/08/02 11:17:54;;;;;;;;;;;;;;;;;;6189203;23;20341;-88
2022/08/02 11:20:20;;;;;;;;;;;;;;;;;;6185605;23;19915;-88
2022/08/02 11:22:46;;;;;;;;;;;;;;;;;;6181138;23;19911;-88
2022/08/02 11:25:21;;;;;;;;;;;;;;;;;;6188179;23;19915;-84
2022/08/02 11:27:47;;;;;;;;;;;;;;;;;;6215708;23;19978;-87
2022/08/02 11:30:13;;;;;;;;;;;;;;;;;;6184592;23;20299;-87
2022/08/02 11:32:38;;;;;;;;;;;;;;;;;;6187317;23;19900;-90
2022/08/02 11:35:05;;;;;;;;;;;;;;;;;;6215190;23;19928;-90
2022/08/02 11:37:34;;;;;;;;;;;;;;;;;;6189317;23;19955;-90
2022/08/02 11:40:00;;;;;;;;;;;;;;;;;;6182137;23;19921;-85
2022/08/02 11:42:33;;;;;;;;;;;;;;;;;;6188424;23;19950;-88
2022/08/02 11:44:58;;;;;;;;;;;;;;;;;;6190682;23;19912;-88
2022/08/02 11:47:24;;;;;;;;;;;;;;;;;;6190126;23;19969;-89
2022/08/02 11:49:50;;;;;;;;;;;;;;;;;;6191397;23;19919;-89
2022/08/02 11:52:15;;;;;;;;;;;;;;;;;;6189413;23;20349;-88
2022/08/02 11:54:41;;;;;;;;;;;;;;;;;;6170974;23;19979;-85
2022/08/02 11:57:17;;;;;;;;;;;;;;;;;;6173056;23;19918;-89
2022/08/02 11:59:44;;;;;;;;;;;;;;;;;;6214576;22;19966;-90
2022/08/02 12:02:14;;;;;;;;;;;;;;;;;;6188536;23;19918;-88
2022/08/02 12:04:40;;;;;;;;;;;;;;;;;;6188452;23;19912;-89
2022/08/02 12:07:06;;;;;;;;;;;;;;;;;;6190182;23;20011;-88
2022/08/02 12:09:32;;;;;;;;;;;;;;;;;;6182199;23;20364;-88
2022/08/02 12:12:01;;;;;;;;;;;;;;;;;;6199552;23;20007;-87
2022/08/02 12:14:27;;;;;;;;;;;;;;;;;;6189377;23;19919;-89
2022/08/02 12:19:41;;;;;;;;;;;;;;;;;;6200861;23;19919;-90
2022/08/02 12:22:07;;;;;;;;;;;;;;;;;;6191603;23;20359;-88
2022/08/02 12:24:33;;;;;;;;;;;;;;;;;;6160704;23;19911;-88
2022/08/02 12:26:59;;;;;;;;;;;;;;;;;;6184182;23;20152;-87
2022/08/02 12:29:35;;;;;;;;;;;;;;;;;;6187456;23;19965;-89
2022/08/02 12:32:02;;;;;;;;;;;;;;;;;;6188164;23;19920;-89
2022/08/02 12:34:28;;;;;;;;;;;;;;;;;;6187223;23;19919;-89
2022/08/02 12:37:00;;;;;;;;;;;;;;;;;;6186051;23;19915;-90
2022/08/02 12:39:41;;;;;;;;;;;;;;;;;;6187980;23;19915;-88
2022/08/02 12:42:09;;;;;;;;;;;;;;;;;;6214744;23;20244;-85
2022/08/02 12:44:37;;;;;;;;;;;;;;;;;;6173998;23;20377;-88
2022/08/02 12:47:04;;;;;;;;;;;;;;;;;;6177541;23;19910;-88
2022/08/02 12:49:30;;;;;;;;;;;;;;;;;;6214683;23;19926;-89
2022/08/02 12:52:20;;;;;;;;;;;;;;;;;;6186902;23;20317;-90
2022/08/02 12:54:50;;;;;;;;;;;;;;;;;;6174680;23;20305;-87
2022/08/02 12:57:16;;;;;;;;;;;;;;;;;;6169127;23;19990;-88
2022/08/02 12:59:43;;;;;;;;;;;;;;;;;;6187496;23;19950;-89
2022/08/02 13:02:09;;;;;;;;;;;;;;;;;;6172384;23;19970;-89
2022/08/02 13:04:35;;;;;;;;;;;;;;;;;;6213606;23;20367;-88
2022/08/02 13:07:01;;;;;;;;;;;;;;;;;;6183196;23;19912;-89
2022/08/02 13:09:27;;;;;;;;;;;;;;;;;;6182605;23;19911;-88
2022/08/02 13:11:52;;;;;;;;;;;;;;;;;;6181928;23;19916;-88
2022/08/02 13:14:18;;;;;;;;;;;;;;;;;;6188555;23;20454;-89
2022/08/02 13:16:45;;;;;;;;;;;;;;;;;;6182938;23;19915;-88
2022/08/02 13:19:14;;;;;;;;;;;;;;;;;;6172283;23;19943;-89
2022/08/02 13:21:40;;;;;;;;;;;;;;;;;;6188793;23;19918;-88
2022/08/02 13:24:06;;;;;;;;;;;;;;;;;;6204600;23;19916;-87
2022/08/02 13:26:32;;;;;;;;;;;;;;;;;;6190191;23;19919;-88
2022/08/02 13:28:58;;;;;;;;;;;;;;;;;;6172324;23;20341;-87
2022/08/02 13:31:24;;;;;;;;;;;;;;;;;;6189175;23;19924;-89
2022/08/02 13:33:50;;;;;;;;;;;;;;;;;;6185905;23;19915;-89
2022/08/02 13:36:16;;;;;;;;;;;;;;;;;;6187750;23;20364;-90
2022/08/02 13:38:42;;;;;;;;;;;;;;;;;;6187319;23;19911;-87
2022/08/02 13:41:09;;;;;;;;;;;;;;;;;;6169649;23;19935;-90
2022/08/02 13:43:38;;;;;;;;;;;;;;;;;;6196607;23;19923;-89
2022/08/02 13:46:06;;;;;;;;;;;;;;;;;;6147087;23;19924;-89
2022/08/02 13:48:32;;;;;;;;;;;;;;;;;;6181326;23;19950;-87
2022/08/02 13:50:58;;;;;;;;;;;;;;;;;;6190070;23;19915;-89
2022/08/02 13:53:24;;;;;;;;;;;;;;;;;;6171724;23;19966;-88
2022/08/02 13:55:49;;;;;;;;;;;;;;;;;;6189657;23;19915;-89
2022/08/02 13:58:15;;;;;;;;;;;;;;;;;;6186914;23;19925;-89
2022/08/02 14:00:42;;;;;;;;;;;;;;;;;;6185483;23;19919;-87
2022/08/02 14:03:08;;;;;;;;;;;;;;;;;;6190028;23;20353;-90
2022/08/02 14:05:43;;;;;;;;;;;;;;;;;;6178557;23;19915;-87
2022/08/02 14:08:09;;;;;;;;;;;;;;;;;;6183185;23;20266;-86
2022/08/02 14:10:34;;;;;;;;;;;;;;;;;;6154854;23;19931;-89
2022/08/02 14:13:03;;;;;;;;;;;;;;;;;;6176852;23;20322;-90
2022/08/02 14:15:32;;;;;;;;;;;;;;;;;;6149394;23;20178;-90
2022/08/02 14:17:58;;;;;;;;;;;;;;;;;;6180544;23;19922;-86
2022/08/02 14:20:23;;;;;;;;;;;;;;;;;;6188351;23;19986;-87
2022/08/02 14:22:49;;;;;;;;;;;;;;;;;;6166417;23;19912;-87
2022/08/02 14:25:17;;;;;;;;;;;;;;;;;;6181775;22;19915;-89
2022/08/02 14:27:43;;;;;;;;;;;;;;;;;;6174015;23;20469;-89
2022/08/02 14:30:09;;;;;;;;;;;;;;;;;;6158285;23;19935;-90
2022/08/02 14:32:35;;;;;;;;;;;;;;;;;;6158547;23;19919;-89
2022/08/02 14:35:02;;;;;;;;;;;;;;;;;;6183431;23;19919;-90
2022/08/02 14:37:28;;;;;;;;;;;;;;;;;;6211333;23;19911;-89
2022/08/02 14:39:53;;;;;;;;;;;;;;;;;;6186229;23;19931;-89
2022/08/02 14:42:19;;;;;;;;;;;;;;;;;;6187848;23;19911;-90
2022/08/02 14:44:47;;;;;;;;;;;;;;;;;;6187676;23;19915;-88
2022/08/02 14:47:13;;;;;;;;;;;;;;;;;;6178529;23;20193;-88
2022/08/02 14:49:38;;;;;;;;;;;;;;;;;;6191171;22;19931;-88
2022/08/02 14:52:04;;;;;;;;;;;;;;;;;;6195142;23;19919;-87
2022/08/02 14:54:30;;;;;;;;;;;;;;;;;;6191129;23;19922;-86
2022/08/02 14:56:56;;;;;;;;;;;;;;;;;;6176128;23;19915;-86
2022/08/02 14:59:22;;;;;;;;;;;;;;;;;;6189375;23;19942;-87
2022/08/02 15:01:47;;;;;;;;;;;;;;;;;;6215709;23;19915;-86
2022/08/02 15:04:13;;;;;;;;;;;;;;;;;;6214378;23;19943;-86
2022/08/02 15:06:39;;;;;;;;;;;;;;;;;;6189393;23;20057;-87
2022/08/02 15:09:04;;;;;;;;;;;;;;;;;;6189222;23;19942;-87
2022/08/02 15:11:30;;;;;;;;;;;;;;;;;;6189019;23;19991;-87
2022/08/02 15:13:57;;;;;;;;;;;;;;;;;;6192887;23;19912;-85
2022/08/02 15:16:23;;;;;;;;;;;;;;;;;;6191578;23;19938;-87
2022/08/02 15:18:49;;;;;;;;;;;;;;;;;;6188933;23;19911;-86
2022/08/02 15:21:14;;;;;;;;;;;;;;;;;;6190230;23;20356;-88
2022/08/02 15:23:40;;;;;;;;;;;;;;;;;;6202658;23;19994;-87
2022/08/02 15:26:05;;;;;;;;;;;;;;;;;;6190248;23;19935;-87
2022/08/02 15:28:31;;;;;;;;;;;;;;;;;;6208412;23;19931;-88
2022/08/02 15:31:00;;;;;;;;;;;;;;;;;;6191189;23;19931;-86
2022/08/02 15:33:25;;;;;;;;;;;;;;;;;;6189716;23;19927;-87
2022/08/02 15:35:51;;;;;;;;;;;;;;;;;;6192970;23;19916;-86
2022/08/02 15:38:16;;;;;;;;;;;;;;;;;;6195747;23;19911;-86
2022/08/02 15:40:42;;;;;;;;;;;;;;;;;;6191338;23;19925;-86
2022/08/02 15:43:08;;;;;;;;;;;;;;;;;;6213880;23;19943;-87
2022/08/02 15:45:37;;;;;;;;;;;;;;;;;;6189197;23;19915;-85
2022/08/02 15:48:04;;;;;;;;;;;;;;;;;;6191806;23;19987;-86
2022/08/02 15:50:30;;;;;;;;;;;;;;;;;;6188524;23;19911;-85
2022/08/02 15:52:56;;;;;;;;;;;;;;;;;;6193488;23;19992;-84
2022/08/02 15:55:24;;;;;;;;;;;;;;;;;;6195044;23;19927;-85
2022/08/02 15:57:50;;;;;;;;;;;;;;;;;;6189171;23;19954;-87
2022/08/02 16:00:16;;;;;;;;;;;;;;;;;;6190044;23;19947;-88
2022/08/02 16:02:42;;;;;;;;;;;;;;;;;;6189084;23;19935;-87
2022/08/02 16:05:09;;;;;;;;;;;;;;;;;;6180063;23;19991;-88
2022/08/02 16:07:47;;;;;;;;;;;;;;;;;;6135646;23;19916;-91
2022/08/02 16:10:15;;;;;;;;;;;;;;;;;;6130747;23;20366;-85
2022/08/02 16:12:41;;;;;;;;;;;;;;;;;;6187518;23;19915;-85
2022/08/02 16:15:07;;;;;;;;;;;;;;;;;;6194954;23;19915;-85
2022/08/02 16:17:33;;;;;;;;;;;;;;;;;;6195168;23;19912;-85
2022/08/02 16:19:58;;;;;;;;;;;;;;;;;;6219634;23;20291;-85
2022/08/02 16:22:24;;;;;;;;;;;;;;;;;;6195148;23;19939;-85
2022/08/02 16:24:50;;;;;;;;;;;;;;;;;;6193078;23;19895;-85
2022/08/02 16:27:15;;;;;;;;;;;;;;;;;;6194010;23;19931;-85
2022/08/02 16:29:41;;;;;;;;;;;;;;;;;;6196336;23;19912;-85
2022/08/02 16:32:07;;;;;;;;;;;;;;;;;;6196171;23;19915;-85
2022/08/02 16:34:33;;;;;;;;;;;;;;;;;;6195418;23;20372;-85
2022/08/02 16:36:58;;;;;;;;;;;;;;;;;;6219617;22;19926;-85
2022/08/02 16:39:24;;;;;;;;;;;;;;;;;;6223540;23;20310;-85
2022/08/02 16:41:49;;;;;;;;;;;;;;;;;;6196798;23;19928;-85
2022/08/02 16:44:16;;;;;;;;;;;;;;;;;;6197176;23;19911;-85
2022/08/02 16:46:42;;;;;;;;;;;;;;;;;;6219410;23;20269;-86
2022/08/02 16:49:08;;;;;;;;;;;;;;;;;;6191501;23;19911;-86
2022/08/02 16:51:34;;;;;;;;;;;;;;;;;;6190437;23;20236;-86
2022/08/02 16:54:00;;;;;;;;;;;;;;;;;;6187699;23;19982;-87